createdAt,value
2023-04-18T00:00:24.770Z,65.08
2023-04-18T00:03:16.630Z,56.41
2023-04-18T00:06:03.616Z,54.39
2023-04-18T00:08:50.199Z,58.27
2023-04-18T00:11:36.375Z,60.60
2023-04-18T00:14:23.167Z,66.68
2023-04-18T00:17:10.442Z,60.75
2023-04-18T00:19:58.391Z,55.88
2023-04-18T00:22:46.486Z,58.07
2023-04-18T00:25:33.630Z,60.90
2023-04-18T00:28:20.047Z,65.64
2023-04-18T00:31:08.315Z,61.49
2023-04-18T00:33:55.044Z,55.40
2023-04-18T00:36:43.242Z,56.34
2023-04-18T00:39:29.999Z,57.81
2023-04-18T00:42:16.751Z,60.80
2023-04-18T00:45:03.375Z,65.72
2023-04-18T00:47:49.874Z,65.29
2023-04-18T00:50:37.817Z,61.87
2023-04-18T00:53:24.547Z,53.53
2023-04-18T00:56:11.776Z,54.40
2023-04-18T00:58:59.320Z,57.15
2023-04-18T01:01:46.403Z,59.93
2023-04-18T01:04:33.096Z,62.20
2023-04-18T01:07:19.925Z,66.94
2023-04-18T01:10:08.120Z,60.47
2023-04-18T01:13:11.776Z,55.63
2023-04-18T01:15:59.170Z,58.37
2023-04-18T01:18:46.387Z,59.75
2023-04-18T01:21:36.189Z,61.23
2023-04-18T01:24:25.861Z,68.94
2023-04-18T01:27:16.086Z,65.93
2023-04-18T01:30:02.671Z,58.24
2023-04-18T01:32:49.759Z,54.72
2023-04-18T01:35:37.300Z,56.69
2023-04-18T01:38:23.686Z,60.00
2023-04-18T01:41:10.612Z,60.67
2023-04-18T01:43:57.080Z,68.93
2023-04-18T01:46:43.498Z,64.23
2023-04-18T01:49:29.794Z,55.85
2023-04-18T01:52:17.433Z,56.67
2023-04-18T01:55:06.040Z,58.12
2023-04-18T01:57:53.035Z,60.89
2023-04-18T02:00:39.717Z,65.53
2023-04-18T02:03:26.242Z,63.27
2023-04-18T02:06:12.814Z,56.03
2023-04-18T02:08:59.624Z,55.96
2023-04-18T02:11:45.918Z,58.11
2023-04-18T02:14:35.322Z,61.51
2023-04-18T02:17:23.753Z,65.82
2023-04-18T02:20:11.050Z,63.54
2023-04-18T02:23:01.086Z,56.05
2023-04-18T02:25:49.400Z,55.17
2023-04-18T02:28:39.280Z,59.07
2023-04-18T02:31:25.553Z,59.39
2023-04-18T02:34:12.407Z,68.02
2023-04-18T02:36:59.902Z,64.17
2023-04-18T02:39:46.466Z,56.47
2023-04-18T02:42:33.182Z,55.37
2023-04-18T02:45:20.828Z,57.85
2023-04-18T02:48:07.929Z,60.25
2023-04-18T02:51:03.410Z,65.95
2023-04-18T02:53:54.972Z,66.58
2023-04-18T02:56:42.916Z,58.83
2023-04-18T02:59:42.964Z,54.40
2023-04-18T03:02:48.202Z,56.27
2023-04-18T03:05:55.225Z,59.03
2023-04-18T03:08:42.243Z,67.58
2023-04-18T03:11:28.864Z,66.39
2023-04-18T03:14:16.185Z,59.40
2023-04-18T03:17:08.410Z,54.32
2023-04-18T03:19:58.655Z,55.12
2023-04-18T03:22:45.565Z,58.61
2023-04-18T03:25:32.712Z,60.48
2023-04-18T03:28:19.271Z,66.67
2023-04-18T03:31:06.003Z,66.28
2023-04-18T03:33:53.744Z,61.04
2023-04-18T03:36:40.840Z,54.70
2023-04-18T03:39:28.558Z,55.33
2023-04-18T03:42:16.075Z,58.99
2023-04-18T03:45:02.850Z,62.79
2023-04-18T03:47:50.991Z,66.23
2023-04-18T03:50:37.660Z,62.44
2023-04-18T03:53:24.730Z,56.81
2023-04-18T03:56:11.763Z,55.63
2023-04-18T03:59:10.925Z,58.59
2023-04-18T04:01:58.283Z,63.94
2023-04-18T04:04:45.383Z,63.30
2023-04-18T04:07:33.038Z,58.39
2023-04-18T04:10:19.969Z,55.61
2023-04-18T04:13:07.176Z,57.89
2023-04-18T04:15:56.951Z,60.38
2023-04-18T04:18:43.902Z,65.94
2023-04-18T04:21:31.894Z,65.26
2023-04-18T04:24:18.821Z,57.27
2023-04-18T04:27:06.446Z,57.34
2023-04-18T04:29:56.721Z,58.85
2023-04-18T04:32:44.818Z,63.92
2023-04-18T04:35:32.190Z,65.41
2023-04-18T04:38:23.144Z,61.03
2023-04-18T04:41:11.853Z,55.08
2023-04-18T04:43:59.656Z,54.56
2023-04-18T04:46:50.180Z,57.62
2023-04-18T04:49:39.813Z,59.59
2023-04-18T04:52:26.533Z,65.52
2023-04-18T04:55:13.513Z,65.70
2023-04-18T04:58:00.781Z,57.76
2023-04-18T05:00:58.851Z,55.94
2023-04-18T05:03:45.625Z,59.40
2023-04-18T05:06:32.381Z,62.85
2023-04-18T05:09:18.994Z,66.72
2023-04-18T05:12:06.085Z,60.62
2023-04-18T05:14:52.922Z,55.14
2023-04-18T05:17:39.407Z,57.04
2023-04-18T05:20:26.061Z,60.59
2023-04-18T05:23:13.140Z,64.32
2023-04-18T05:25:59.771Z,63.20
2023-04-18T05:28:46.283Z,55.40
2023-04-18T05:31:33.138Z,57.13
2023-04-18T05:34:19.857Z,59.44
2023-04-18T05:37:06.617Z,60.21
2023-04-18T05:39:52.997Z,65.66
2023-04-18T05:42:39.419Z,63.60
2023-04-18T05:45:26.296Z,56.41
2023-04-18T05:48:13.546Z,54.86
2023-04-18T05:51:00.496Z,57.59
2023-04-18T05:53:47.120Z,62.02
2023-04-18T05:56:33.889Z,64.19
2023-04-18T05:59:23.159Z,58.94
2023-04-18T06:02:13.566Z,57.05
2023-04-18T06:05:01.526Z,59.28
2023-04-18T06:07:48.695Z,59.90
2023-04-18T06:10:36.989Z,64.79
2023-04-18T06:13:25.485Z,60.63
2023-04-18T06:16:12.502Z,56.66
2023-04-18T06:19:01.191Z,57.62
2023-04-18T06:21:49.049Z,59.51
2023-04-18T06:24:35.727Z,65.08
2023-04-18T06:27:31.070Z,62.92
2023-04-18T06:30:22.017Z,54.60
2023-04-18T06:33:11.065Z,54.88
2023-04-18T06:35:58.875Z,59.21
2023-04-18T06:38:45.709Z,60.67
2023-04-18T06:41:32.175Z,64.71
2023-04-18T06:44:18.559Z,61.65
2023-04-18T06:47:06.006Z,54.64
2023-04-18T06:49:52.590Z,53.56
2023-04-18T06:52:44.251Z,57.29
2023-04-18T06:55:30.990Z,58.98
2023-04-18T06:58:17.862Z,65.07
2023-04-18T07:01:04.451Z,62.05
2023-04-18T07:03:51.264Z,54.86
2023-04-18T07:06:37.754Z,54.33
2023-04-18T07:09:24.061Z,57.95
2023-04-18T07:12:10.677Z,57.79
2023-04-18T07:14:57.406Z,61.59
2023-04-18T07:17:44.010Z,62.53
2023-04-18T07:20:30.819Z,56.91
2023-04-18T07:23:17.350Z,56.10
2023-04-18T07:26:05.783Z,58.23
2023-04-18T07:28:52.084Z,61.33
2023-04-18T07:31:38.746Z,61.19
2023-04-18T07:34:29.784Z,64.61
2023-04-18T07:37:18.375Z,60.26
2023-04-18T07:40:05.706Z,53.79
2023-04-18T07:42:53.146Z,56.31
2023-04-18T07:45:39.659Z,58.66
2023-04-18T07:48:26.145Z,59.23
2023-04-18T07:51:12.982Z,61.54
2023-04-18T07:53:59.609Z,62.78
2023-04-18T07:56:45.817Z,62.00
2023-04-18T07:59:32.371Z,55.24
2023-04-18T08:02:20.391Z,56.11
2023-04-18T08:05:07.970Z,57.69
2023-04-18T08:07:54.528Z,58.64
2023-04-18T08:10:41.018Z,57.08
2023-04-18T08:13:27.962Z,59.75
2023-04-18T08:16:16.360Z,63.19
2023-04-18T08:19:03.856Z,62.32
2023-04-18T08:21:52.001Z,54.41
2023-04-18T08:24:39.055Z,55.12
2023-04-18T08:27:25.840Z,56.29
2023-04-18T08:30:13.558Z,56.75
2023-04-18T08:33:00.709Z,58.86
2023-04-18T08:35:47.556Z,59.25
2023-04-18T08:38:34.285Z,59.75
2023-04-18T08:41:23.562Z,60.05
2023-04-18T08:44:10.043Z,60.32
2023-04-18T08:46:57.791Z,60.88
2023-04-18T08:49:46.673Z,60.68
2023-04-18T08:52:36.161Z,60.48
2023-04-18T08:55:24.665Z,59.85
2023-04-18T08:58:12.753Z,60.28
2023-04-18T09:00:59.719Z,60.39
2023-04-18T09:03:46.433Z,59.74
2023-04-18T09:06:33.605Z,58.78
2023-04-18T09:09:27.325Z,58.86
2023-04-18T09:12:18.296Z,58.60
2023-04-18T09:15:15.704Z,58.61
2023-04-18T09:18:03.212Z,58.29
2023-04-18T09:20:50.078Z,58.28
2023-04-18T09:23:38.655Z,57.32
2023-04-18T09:26:37.724Z,56.62
2023-04-18T09:29:47.090Z,56.90
2023-04-18T09:32:33.789Z,56.35
2023-04-18T09:35:25.956Z,56.14
2023-04-18T09:38:12.299Z,55.73
2023-04-18T09:41:09.256Z,55.56
2023-04-18T09:44:14.609Z,55.25
2023-04-18T09:47:02.547Z,54.98
2023-04-18T09:49:49.004Z,54.59
2023-04-18T09:52:38.539Z,54.33
2023-04-18T09:55:25.451Z,53.93
2023-04-18T09:58:13.306Z,54.06
2023-04-18T10:01:00.763Z,53.55
2023-04-18T10:03:51.327Z,54.01
2023-04-18T10:06:39.910Z,53.04
2023-04-18T10:09:31.522Z,52.76
2023-04-18T10:12:18.853Z,52.67
2023-04-18T10:15:06.761Z,52.93
2023-04-18T10:18:03.765Z,52.65
2023-04-18T10:21:01.938Z,52.42
2023-04-18T10:23:48.907Z,53.12
2023-04-18T10:26:47.239Z,53.32
2023-04-18T10:29:50.685Z,52.53
2023-04-18T10:32:36.990Z,52.83
2023-04-18T10:35:23.305Z,52.77
2023-04-18T10:38:17.296Z,52.74
2023-04-18T10:41:26.100Z,52.19
2023-04-18T10:44:14.902Z,52.40
2023-04-18T10:47:02.633Z,52.55
2023-04-18T10:49:57.040Z,51.84
2023-04-18T10:52:43.781Z,51.77
2023-04-18T10:55:31.258Z,52.23
2023-04-18T10:58:17.848Z,52.77
2023-04-18T11:01:06.130Z,52.94
2023-04-18T11:03:53.485Z,52.83
2023-04-18T11:06:50.243Z,52.47
2023-04-18T11:09:38.565Z,52.52
2023-04-18T11:12:24.862Z,53.00
2023-04-18T11:15:17.620Z,52.97
2023-04-18T11:18:05.094Z,52.93
2023-04-18T11:20:52.527Z,52.72
2023-04-18T11:23:41.187Z,52.89
2023-04-18T11:26:29.211Z,52.76
2023-04-18T11:29:17.932Z,52.79
2023-04-18T11:32:08.959Z,52.72
2023-04-18T11:34:55.739Z,52.44
2023-04-18T11:37:45.757Z,52.85
2023-04-18T11:40:32.129Z,53.30
2023-04-18T11:43:25.456Z,52.60
2023-04-18T11:46:13.319Z,51.87
2023-04-18T11:48:59.653Z,51.56
2023-04-18T11:51:47.554Z,52.18
2023-04-18T11:54:44.956Z,52.35
2023-04-18T11:57:33.043Z,51.58
2023-04-18T12:00:30.947Z,50.79
2023-04-18T12:03:20.848Z,51.16
2023-04-18T12:06:07.546Z,51.31
2023-04-18T12:09:02.867Z,51.18
2023-04-18T12:12:07.349Z,50.49
2023-04-18T12:15:03.277Z,50.44
2023-04-18T12:17:52.541Z,50.75
2023-04-18T12:20:46.725Z,50.72
2023-04-18T12:23:38.866Z,50.79
2023-04-18T12:26:26.843Z,49.46
2023-04-18T12:29:13.834Z,49.41
2023-04-18T12:32:00.689Z,50.67
2023-04-18T12:34:47.332Z,50.70
2023-04-18T12:37:33.928Z,50.63
2023-04-18T12:40:22.939Z,50.57
2023-04-18T12:43:09.791Z,50.09
2023-04-18T12:45:56.700Z,49.79
2023-04-18T12:48:42.847Z,49.27
2023-04-18T12:51:29.046Z,49.20
2023-04-18T12:54:15.735Z,49.19
2023-04-18T12:57:03.294Z,49.07
2023-04-18T12:59:49.899Z,48.60
2023-04-18T13:02:50.725Z,48.66
2023-04-18T13:05:37.208Z,48.68
2023-04-18T13:08:23.867Z,48.11
2023-04-18T13:11:10.254Z,48.42
2023-04-18T13:13:56.977Z,48.19
2023-04-18T13:16:44.226Z,47.79
2023-04-18T13:19:30.781Z,47.98
2023-04-18T13:22:20.052Z,48.21
2023-04-18T13:25:08.456Z,46.56
2023-04-18T13:27:55.268Z,43.12
2023-04-18T13:30:41.767Z,42.34
2023-04-18T13:33:28.094Z,42.72
2023-04-18T13:36:14.563Z,42.52
2023-04-18T13:39:02.151Z,42.53
2023-04-18T13:41:48.619Z,42.91
2023-04-18T13:44:36.670Z,43.08
2023-04-18T13:47:23.531Z,42.48
2023-04-18T13:50:11.087Z,38.27
2023-04-18T13:52:57.740Z,38.01
2023-04-18T13:55:44.406Z,34.77
2023-04-18T13:58:30.997Z,32.53
2023-04-18T14:01:17.724Z,33.95
2023-04-18T14:04:04.276Z,34.74
2023-04-18T14:06:51.447Z,35.38
2023-04-18T14:09:38.087Z,34.98
2023-04-18T14:12:50.059Z,34.16
2023-04-18T14:19:04.294Z,33.83
2023-04-18T14:21:50.922Z,34.90
2023-04-18T14:24:37.351Z,36.19
2023-04-18T14:27:25.542Z,37.07
2023-04-18T14:30:12.648Z,38.18
2023-04-18T14:32:58.877Z,39.28
2023-04-18T14:35:46.037Z,40.10
2023-04-18T14:38:33.289Z,41.04
2023-04-18T14:41:19.568Z,42.20
2023-04-18T14:44:06.753Z,42.81
2023-04-18T14:46:53.294Z,43.54
2023-04-18T14:49:40.296Z,44.04
2023-04-18T14:52:26.714Z,44.42
2023-04-18T14:55:13.691Z,44.90
2023-04-18T14:58:01.327Z,45.41
2023-04-18T15:00:49.109Z,46.02
2023-04-18T15:03:35.852Z,46.53
2023-04-18T15:06:23.240Z,47.14
2023-04-18T15:09:09.883Z,47.42
2023-04-18T15:11:58.248Z,47.90
2023-04-18T15:14:45.224Z,48.50
2023-04-18T15:17:31.869Z,48.90
2023-04-18T15:20:18.790Z,49.23
2023-04-18T15:23:05.304Z,49.49
2023-04-18T15:25:51.621Z,49.63
2023-04-18T15:28:37.950Z,49.99
2023-04-18T15:31:24.616Z,50.43
2023-04-18T15:34:11.873Z,50.98
2023-04-18T15:36:58.716Z,51.48
2023-04-18T15:39:45.295Z,51.50
2023-04-18T15:42:31.649Z,52.23
2023-04-18T15:45:18.538Z,52.44
2023-04-18T15:48:05.604Z,52.95
2023-04-18T15:50:52.606Z,53.01
2023-04-18T15:53:39.252Z,53.34
2023-04-18T15:56:26.870Z,53.72
2023-04-18T15:59:13.678Z,53.65
2023-04-18T16:02:00.660Z,53.81
2023-04-18T16:04:47.140Z,53.83
2023-04-18T16:07:33.915Z,54.18
2023-04-18T16:10:20.606Z,54.38
2023-04-18T16:13:06.873Z,54.40
2023-04-18T16:15:53.101Z,54.43
2023-04-18T16:18:40.588Z,54.54
2023-04-18T16:21:28.238Z,54.89
2023-04-18T16:24:18.408Z,55.42
2023-04-18T16:27:05.264Z,55.68
2023-04-18T16:29:51.483Z,56.02
2023-04-18T16:32:38.861Z,56.36
2023-04-18T16:35:25.590Z,56.67
2023-04-18T16:38:12.075Z,56.92
2023-04-18T16:40:59.676Z,57.11
2023-04-18T16:43:46.539Z,57.28
2023-04-18T16:46:33.320Z,57.10
2023-04-18T16:49:20.567Z,57.17
2023-04-18T16:52:07.371Z,57.31
2023-04-18T16:54:53.821Z,57.50
2023-04-18T16:57:40.402Z,57.61
2023-04-18T17:00:27.338Z,57.50
2023-04-18T17:03:14.372Z,57.70
2023-04-18T17:06:01.629Z,57.77
2023-04-18T17:08:49.250Z,57.94
2023-04-18T17:11:39.634Z,58.28
2023-04-18T17:14:26.730Z,58.48
2023-04-18T17:17:13.290Z,58.78
2023-04-18T17:20:00.027Z,58.92
2023-04-18T17:22:46.687Z,59.20
2023-04-18T17:25:33.136Z,59.66
2023-04-18T17:28:21.714Z,60.37
2023-04-18T17:31:08.306Z,60.95
2023-04-18T17:33:54.927Z,61.30
2023-04-18T17:36:41.874Z,63.72
2023-04-18T17:39:28.555Z,65.97
2023-04-18T17:42:15.398Z,56.38
2023-04-18T17:45:03.759Z,52.66
2023-04-18T17:47:50.942Z,53.97
2023-04-18T17:50:38.097Z,55.10
2023-04-18T17:53:24.539Z,56.70
2023-04-18T17:56:11.610Z,58.85
2023-04-18T17:58:57.880Z,59.87
2023-04-18T18:01:44.251Z,61.05
2023-04-18T18:04:31.041Z,61.40
2023-04-18T18:07:18.448Z,64.75
2023-04-18T18:10:05.496Z,59.47
2023-04-18T18:12:51.859Z,54.88
2023-04-18T18:15:39.046Z,56.28
2023-04-18T18:18:26.366Z,57.93
2023-04-18T18:21:12.954Z,59.28
2023-04-18T18:23:59.307Z,60.15
2023-04-18T18:26:45.869Z,60.55
2023-04-18T18:29:32.254Z,61.77
2023-04-18T18:32:18.869Z,61.87
2023-04-18T18:35:06.245Z,65.63
2023-04-18T18:37:52.813Z,62.13
2023-04-18T18:40:39.543Z,54.32
2023-04-18T18:43:26.558Z,55.02
2023-04-18T18:46:15.029Z,57.57
2023-04-18T18:49:01.664Z,58.80
2023-04-18T18:51:48.451Z,60.54
2023-04-18T18:54:35.028Z,60.83
2023-04-18T18:57:21.626Z,64.95
2023-04-18T19:00:11.869Z,62.93
2023-04-18T19:02:58.266Z,54.54
2023-04-18T19:05:46.421Z,54.49
2023-04-18T19:08:33.835Z,56.41
2023-04-18T19:11:21.175Z,58.90
2023-04-18T19:14:07.829Z,60.21
2023-04-18T19:16:56.042Z,61.80
2023-04-18T19:19:42.809Z,61.61
2023-04-18T19:22:30.008Z,61.15
2023-04-18T19:25:16.709Z,60.18
2023-04-18T19:28:05.834Z,59.66
2023-04-18T19:30:53.164Z,59.55
2023-04-18T19:33:39.386Z,59.01
2023-04-18T19:36:26.734Z,59.14
2023-04-18T19:39:13.779Z,57.86
2023-04-18T19:42:00.648Z,58.29
2023-04-18T19:44:46.970Z,57.71
2023-04-18T19:47:34.036Z,57.72
2023-04-18T19:50:20.460Z,57.03
2023-04-18T19:53:06.897Z,54.84
2023-04-18T19:55:55.043Z,53.86
2023-04-18T19:58:46.224Z,52.26
2023-04-18T20:01:32.919Z,51.71
2023-04-18T20:04:19.576Z,49.08
2023-04-18T20:07:06.428Z,48.92
2023-04-18T20:09:53.126Z,48.77
2023-04-18T20:12:39.798Z,47.41
2023-04-18T20:15:26.156Z,46.94
2023-04-18T20:18:12.678Z,47.91
2023-04-18T20:20:58.761Z,46.37
2023-04-18T20:23:45.314Z,45.69
2023-04-18T20:26:31.810Z,45.94
2023-04-18T20:29:18.334Z,45.51
2023-04-18T20:32:05.809Z,45.37
2023-04-18T20:34:52.287Z,45.61
2023-04-18T20:37:39.276Z,45.77
2023-04-18T20:40:26.152Z,46.33
2023-04-18T20:43:13.560Z,46.23
2023-04-18T20:46:01.003Z,46.36
2023-04-18T20:48:47.545Z,46.56
2023-04-18T20:51:38.134Z,46.54
2023-04-18T20:54:24.690Z,46.89
2023-04-18T20:57:11.114Z,47.23
2023-04-18T20:59:58.672Z,47.35
2023-04-18T21:02:45.259Z,47.26
2023-04-18T21:05:32.477Z,47.38
2023-04-18T21:08:19.522Z,47.71
2023-04-18T21:11:07.128Z,47.54
2023-04-18T21:13:53.497Z,47.54
2023-04-18T21:16:40.083Z,47.71
2023-04-18T21:19:27.144Z,47.97
2023-04-18T21:22:15.270Z,48.00
2023-04-18T21:25:01.771Z,48.16
2023-04-18T21:27:50.782Z,48.28
2023-04-18T21:30:37.320Z,48.24
2023-04-18T21:33:24.566Z,48.50
2023-04-18T21:36:11.180Z,48.62
2023-04-18T21:38:59.634Z,48.65
2023-04-18T21:41:45.917Z,48.96
2023-04-18T21:44:32.829Z,49.28
2023-04-18T21:47:19.713Z,49.10
2023-04-18T21:50:07.265Z,49.18
2023-04-18T21:52:53.380Z,49.34
2023-04-18T21:55:40.168Z,49.46
2023-04-18T21:58:27.486Z,49.39
2023-04-18T22:01:13.757Z,49.05
2023-04-18T22:04:02.128Z,49.22
2023-04-18T22:06:48.823Z,49.52
2023-04-18T22:09:36.385Z,49.98
2023-04-18T22:12:22.665Z,50.21
2023-04-18T22:15:10.426Z,50.41
2023-04-18T22:17:57.866Z,50.91
2023-04-18T22:20:45.253Z,51.09
2023-04-18T22:23:32.101Z,51.31
2023-04-18T22:26:18.266Z,51.72
2023-04-18T22:29:05.298Z,51.99
2023-04-18T22:31:51.767Z,51.72
2023-04-18T22:34:37.969Z,52.23
2023-04-18T22:37:24.627Z,52.69
2023-04-18T22:40:12.515Z,52.83
2023-04-18T22:42:59.206Z,53.27
2023-04-18T22:45:45.631Z,53.52
2023-04-18T22:48:31.927Z,53.65
2023-04-18T22:51:18.818Z,53.92
2023-04-18T22:54:05.283Z,54.63
2023-04-18T22:56:51.718Z,54.36
2023-04-18T22:59:38.066Z,54.76
2023-04-18T23:02:24.786Z,55.21
2023-04-18T23:05:11.949Z,55.27
2023-04-18T23:08:00.219Z,55.44
2023-04-18T23:10:46.801Z,56.43
2023-04-18T23:13:33.246Z,56.43
2023-04-18T23:16:19.829Z,57.04
2023-04-18T23:19:06.251Z,56.20
2023-04-18T23:21:52.605Z,57.25
2023-04-18T23:24:39.007Z,57.54
2023-04-18T23:27:25.401Z,57.61
2023-04-18T23:30:12.950Z,57.17
2023-04-18T23:32:59.533Z,58.13
2023-04-18T23:35:46.154Z,57.75
2023-04-18T23:38:33.469Z,57.69
2023-04-18T23:41:20.537Z,57.73
2023-04-18T23:44:07.233Z,58.67
2023-04-18T23:46:53.905Z,59.20
2023-04-18T23:49:40.556Z,59.65
2023-04-18T23:52:27.398Z,60.40
2023-04-18T23:55:14.687Z,60.87
2023-04-18T23:58:01.406Z,60.31
